Time;durP1;ratioP1;P1;durP2;ratioP2;P2;SDS_P1;SDS_P2;PMS_P1;PMS_P2;Temp;Humidity;BMP_temperature;BMP_pressure;BME280_temperature;BME280_humidity;BME280_pressure;Samples;Min_cycle;Max_cycle;Signal;HPM_P1;HPM_P2
2022/03/26 00:02:39;;;;;;;26.00;9.50;;;10.40;70.30;;;;;;10332885;28;83481;-52
2022/03/26 00:07:40;;;;;;;20.80;8.98;;;10.30;99.90;;;;;;10333124;28;83293;-54
2022/03/26 00:12:41;;;;;;;19.75;9.65;;;10.30;99.90;;;;;;10333399;28;84062;-56
2022/03/26 00:17:41;;;;;;;16.73;8.63;;;10.10;1.00;;;;;;10332023;28;84255;-52
2022/03/26 00:22:42;;;;;;;23.92;10.30;;;10.20;1.00;;;;;;10332933;28;84320;-52
2022/03/26 00:27:43;;;;;;;23.55;9.38;;;10.00;1.00;;;;;;10331647;28;86888;-53
2022/03/26 00:32:44;;;;;;;18.80;9.40;;;10.10;1.00;;;;;;10333687;28;83370;-55
2022/03/26 00:37:44;;;;;;;20.20;9.68;;;9.90;1.00;;;;;;10331053;28;84051;-52
2022/03/26 00:42:45;;;;;;;18.83;8.65;;;10.00;1.00;;;;;;10333604;28;83916;-54
2022/03/26 00:47:46;;;;;;;20.50;8.85;;;9.90;1.00;;;;;;10333169;28;84086;-56
2022/03/26 00:52:47;;;;;;;19.38;8.77;;;9.90;1.00;;;;;;10329252;28;84140;-55
2022/03/26 00:57:48;;;;;;;15.98;7.90;;;9.80;1.00;;;;;;10314135;28;84214;-52
2022/03/26 01:02:48;;;;;;;19.77;8.38;;;9.80;1.00;;;;;;10313360;28;84522;-53
2022/03/26 01:07:50;;;;;;;13.98;7.43;;;9.70;1.00;;;;;;10331978;28;84139;-55
2022/03/26 01:12:51;;;;;;;17.33;7.97;;;9.60;1.50;;;;;;10346665;28;84483;-55
2022/03/26 01:17:51;;;;;;;18.40;7.25;;;9.60;39.50;;;;;;10346390;28;85157;-55
2022/03/26 01:22:52;;;;;;;19.33;7.95;;;9.50;99.90;;;;;;10330070;28;83905;-50
2022/03/26 01:27:53;;;;;;;20.15;8.05;;;9.40;99.90;;;;;;10311387;28;85052;-52
2022/03/26 01:32:55;;;;;;;18.60;7.38;;;9.40;99.90;;;;;;10330770;28;83511;-51
2022/03/26 01:37:56;;;;;;;17.95;8.05;;;9.40;99.90;;;;;;10328912;28;84262;-54
2022/03/26 01:42:56;;;;;;;18.30;8.00;;;9.30;99.90;;;;;;10330933;28;84005;-53
2022/03/26 01:47:58;;;;;;;21.75;8.10;;;9.30;99.90;;;;;;10344664;28;85834;-54
2022/03/26 01:52:59;;;;;;;16.45;7.18;;;9.30;99.90;;;;;;10329672;28;86223;-56
2022/03/26 01:58:00;;;;;;;18.08;7.60;;;9.10;1.00;;;;;;10330883;28;83338;-55
2022/03/26 02:03:02;;;;;;;21.17;8.75;;;9.10;1.00;;;;;;10328286;28;85243;-56
2022/03/26 02:08:03;;;;;;;16.90;7.90;;;9.10;1.00;;;;;;10327862;28;84387;-53
2022/03/26 02:13:05;;;;;;;19.45;8.40;;;9.00;1.00;;;;;;10310870;28;85100;-56
2022/03/26 02:18:06;;;;;;;19.25;8.07;;;9.00;1.00;;;;;;10327978;28;84394;-52
2022/03/26 02:23:07;;;;;;;18.85;8.02;;;9.00;1.00;;;;;;10343972;28;84300;-56
2022/03/26 02:28:09;;;;;;;16.63;8.10;;;9.00;1.00;;;;;;10326519;28;86822;-51
2022/03/26 02:33:09;;;;;;;19.73;8.65;;;8.80;1.00;;;;;;10310987;28;83965;-53
2022/03/26 02:38:10;;;;;;;21.77;8.27;;;8.70;1.00;;;;;;10328187;28;83369;-54
2022/03/26 02:43:12;;;;;;;18.35;7.88;;;8.80;1.00;;;;;;10344070;28;85314;-50
2022/03/26 02:48:14;;;;;;;16.20;7.65;;;8.70;1.00;;;;;;10326775;28;84004;-53
2022/03/26 02:53:15;;;;;;;21.35;8.15;;;8.70;1.00;;;;;;10327898;28;83191;-54
2022/03/26 02:58:15;;;;;;;27.15;8.68;;;8.60;1.00;;;;;;10331084;28;84641;-53
2022/03/26 03:03:16;;;;;;;24.40;10.63;;;8.60;1.00;;;;;;10337367;28;83365;-55
2022/03/26 03:08:17;;;;;;;20.85;9.30;;;8.60;1.00;;;;;;10338037;28;83299;-54
2022/03/26 03:13:21;;;;;;;19.55;8.35;;;8.50;1.00;;;;;;10338157;28;84144;-52
2022/03/26 03:18:21;;;;;;;23.58;8.77;;;8.50;1.00;;;;;;10337865;28;84365;-51
2022/03/26 03:23:22;;;;;;;17.98;7.80;;;8.50;1.00;;;;;;10334902;28;84088;-55
2022/03/26 03:28:23;;;;;;;20.88;8.45;;;8.50;1.00;;;;;;10316982;28;85357;-51
2022/03/26 03:33:25;;;;;;;18.23;8.25;;;8.50;1.00;;;;;;10334071;28;84154;-51
2022/03/26 03:38:25;;;;;;;24.50;8.50;;;8.40;1.00;;;;;;10332423;28;83502;-55
2022/03/26 03:43:26;;;;;;;19.63;7.65;;;8.40;1.00;;;;;;10332759;28;83846;-54
2022/03/26 03:48:27;;;;;;;23.55;9.77;;;8.30;1.00;;;;;;10345814;28;83987;-55
2022/03/26 03:53:28;;;;;;;15.80;7.25;;;8.30;1.00;;;;;;10348501;28;86222;-53
2022/03/26 03:58:29;;;;;;;22.20;7.97;;;8.20;1.00;;;;;;10313710;28;86101;-57
2022/03/26 04:03:30;;;;;;;22.33;9.20;;;8.10;31.80;;;;;;10331133;28;86002;-53
2022/03/26 04:08:31;;;;;;;18.90;8.45;;;8.10;95.90;;;;;;10329796;28;85215;-51
2022/03/26 04:13:31;;;;;;;25.75;8.75;;;8.00;99.90;;;;;;10310488;28;83516;-54
2022/03/26 04:18:32;;;;;;;19.50;9.02;;;7.90;99.90;;;;;;10289264;28;84560;-50
2022/03/26 04:23:32;;;;;;;16.98;7.82;;;7.90;99.90;;;;;;10289421;28;85939;-53
2022/03/26 04:28:33;;;;;;;16.88;7.75;;;7.90;99.90;;;;;;10322622;28;84309;-54
2022/03/26 04:33:34;;;;;;;24.52;8.35;;;7.80;99.90;;;;;;10332287;28;84474;-54
2022/03/26 04:38:36;;;;;;;21.85;8.98;;;7.80;99.90;;;;;;10354681;22;84451;-53
2022/03/26 04:43:37;;;;;;;19.00;8.63;;;7.90;99.90;;;;;;10380998;28;83541;-49
2022/03/26 04:48:37;;;;;;;31.85;9.80;;;7.80;99.90;;;;;;10358508;28;83915;-52
2022/03/26 04:53:39;;;;;;;17.88;7.95;;;7.80;99.90;;;;;;10329855;28;83920;-51
2022/03/26 04:58:39;;;;;;;25.33;9.10;;;7.80;99.90;;;;;;10340034;28;84242;-50
2022/03/26 05:03:40;;;;;;;23.13;8.77;;;7.70;99.90;;;;;;10339542;28;84494;-46
2022/03/26 05:08:41;;;;;;;24.17;8.90;;;7.70;99.90;;;;;;10351677;28;91522;-55
2022/03/26 05:13:41;;;;;;;24.58;9.48;;;7.70;99.90;;;;;;10334842;28;84019;-47
2022/03/26 05:18:42;;;;;;;21.73;9.10;;;7.70;99.90;;;;;;10358393;28;83793;-47
2022/03/26 05:23:43;;;;;;;25.60;10.00;;;7.70;99.90;;;;;;10350349;28;83616;-49
2022/03/26 05:28:43;;;;;;;22.55;9.23;;;7.70;99.90;;;;;;10351106;28;85211;-53
2022/03/26 05:33:44;;;;;;;24.20;9.05;;;7.70;99.90;;;;;;10359774;28;96274;-54
2022/03/26 05:38:44;;;;;;;23.50;9.15;;;7.80;99.90;;;;;;10349956;28;83941;-51
2022/03/26 05:43:45;;;;;;;23.95;8.43;;;7.80;99.90;;;;;;10358805;28;86938;-49
2022/03/26 05:48:46;;;;;;;22.80;9.32;;;7.80;99.90;;;;;;10356976;28;84388;-44
2022/03/26 05:53:47;;;;;;;23.17;9.38;;;7.90;99.90;;;;;;10361904;28;95385;-49
2022/03/26 05:58:50;;;;;;;20.15;9.40;;;7.90;99.90;;;;;;10354364;28;84131;-52
2022/03/26 06:03:50;;;;;;;19.25;9.70;;;8.00;99.90;;;;;;10348714;28;83531;-48
2022/03/26 06:08:51;;;;;;;21.45;9.20;;;8.00;99.90;;;;;;10355952;28;83767;-48
2022/03/26 06:13:52;;;;;;;26.48;9.70;;;8.10;99.90;;;;;;10360843;28;91536;-49
2022/03/26 06:18:52;;;;;;;21.48;9.57;;;8.10;99.90;;;;;;10359199;28;87639;-48
2022/03/26 06:23:53;;;;;;;21.23;9.93;;;8.20;99.90;;;;;;10351315;28;93487;-51
2022/03/26 06:28:54;;;;;;;25.85;10.13;;;8.40;99.90;;;;;;10346375;28;96886;-47
2022/03/26 06:33:54;;;;;;;24.88;10.32;;;8.60;1.00;;;;;;10351204;28;92103;-53
2022/03/26 06:38:55;;;;;;;28.77;11.95;;;9.10;1.00;;;;;;10357761;28;94004;-54
2022/03/26 06:43:55;;;;;;;24.83;10.02;;;9.80;1.00;;;;;;10363179;28;83491;-56
2022/03/26 06:48:56;;;;;;;29.02;10.73;;;10.40;99.90;;;;;;10361857;28;102454;-53
2022/03/26 06:53:57;;;;;;;26.13;10.05;;;10.90;1.00;;;;;;10366000;28;83360;-58
2022/03/26 06:58:58;;;;;;;24.85;10.10;;;11.30;1.00;;;;;;10354214;28;83417;-45
2022/03/26 07:03:59;;;;;;;25.63;11.90;;;11.50;1.00;;;;;;10367347;28;84079;-51
2022/03/26 07:09:00;;;;;;;24.70;11.13;;;12.00;1.00;;;;;;10358247;28;83231;-48
2022/03/26 07:14:01;;;;;;;25.45;11.25;;;12.70;99.90;;;;;;10349517;28;84251;-50
2022/03/26 07:19:01;;;;;;;30.20;12.13;;;13.40;99.90;;;;;;10365107;28;84211;-56
2022/03/26 07:24:03;;;;;;;28.33;12.07;;;14.00;99.90;;;;;;10356383;28;83369;-52
2022/03/26 07:29:03;;;;;;;29.65;12.48;;;14.50;38.40;;;;;;10351376;28;83650;-62
2022/03/26 07:34:04;;;;;;;26.38;12.63;;;15.40;99.90;;;;;;10355442;28;83734;-54
2022/03/26 07:39:04;;;;;;;28.85;11.80;;;15.50;1.00;;;;;;10356316;28;87847;-50
2022/03/26 07:44:05;;;;;;;28.30;13.15;;;15.50;1.00;;;;;;10321653;28;83971;-51
2022/03/26 07:49:06;;;;;;;28.08;12.63;;;15.80;99.90;;;;;;10327074;28;94959;-47
2022/03/26 07:54:08;;;;;;;30.05;12.65;;;16.10;99.90;;;;;;10333259;28;84076;-50
2022/03/26 07:59:08;;;;;;;29.85;13.13;;;16.00;1.00;;;;;;10324994;28;83794;-49
2022/03/26 08:04:09;;;;;;;28.23;11.93;;;16.40;1.00;;;;;;10326950;28;84026;-60
2022/03/26 08:09:09;;;;;;;27.77;12.82;;;16.80;1.00;;;;;;10356253;28;83957;-63
2022/03/26 08:14:10;;;;;;;25.52;12.52;;;17.30;1.00;;;;;;10348737;28;83980;-65
2022/03/26 08:19:11;;;;;;;34.35;14.20;;;18.10;99.90;;;;;;10379123;28;84097;-60
2022/03/26 08:24:12;;;;;;;36.95;14.10;;;18.50;99.90;;;;;;10349020;28;86351;-64
2022/03/26 08:29:13;;;;;;;31.40;13.23;;;18.90;1.00;;;;;;10327365;28;84086;-62
2022/03/26 08:34:13;;;;;;;33.20;14.00;;;19.50;1.00;;;;;;10332146;28;91839;-61
2022/03/26 08:39:14;;;;;;;31.73;13.68;;;19.90;1.00;;;;;;10352833;28;86667;-52
2022/03/26 08:44:15;;;;;;;34.15;14.48;;;20.10;1.00;;;;;;10329155;28;83965;-54
2022/03/26 08:49:15;;;;;;;29.50;12.77;;;19.30;99.90;;;;;;10318973;28;85164;-46
2022/03/26 08:54:16;;;;;;;26.70;13.65;;;19.20;99.90;;;;;;10349630;28;85694;-49
2022/03/26 08:59:17;;;;;;;25.10;12.20;;;19.10;99.90;;;;;;10345507;28;92906;-51
2022/03/26 09:04:17;;;;;;;23.35;11.80;;;19.00;99.90;;;;;;10350595;28;84798;-48
2022/03/26 09:09:18;;;;;;;24.80;10.73;;;19.90;99.90;;;;;;10328188;28;93691;-54
2022/03/26 09:14:18;;;;;;;24.77;11.32;;;20.50;99.90;;;;;;10358537;28;83191;-52
2022/03/26 09:19:19;;;;;;;25.50;12.00;;;21.90;99.90;;;;;;10370398;28;93617;-49
2022/03/26 09:24:19;;;;;;;21.25;10.88;;;22.50;99.90;;;;;;10374524;28;84099;-52
2022/03/26 09:29:20;;;;;;;20.17;10.75;;;23.00;99.90;;;;;;10370441;28;96877;-52
2022/03/26 09:34:21;;;;;;;17.40;9.45;;;22.30;99.90;;;;;;10370624;28;83358;-50
2022/03/26 09:39:22;;;;;;;16.15;8.57;;;22.40;99.90;;;;;;10369546;28;84171;-52
2022/03/26 09:44:23;;;;;;;17.98;9.65;;;23.30;99.90;;;;;;10369044;28;83207;-53
2022/03/26 09:49:23;;;;;;;19.77;10.70;;;22.40;99.90;;;;;;10368098;28;84087;-52
2022/03/26 09:54:25;;;;;;;15.13;8.05;;;22.40;99.90;;;;;;10369335;28;86524;-50
2022/03/26 09:59:25;;;;;;;17.10;9.55;;;23.10;99.90;;;;;;10366187;28;83891;-52
2022/03/26 10:04:36;;;;;;;17.83;9.20;;;23.60;99.90;;;;;;10368054;28;83316;-52
2022/03/26 10:09:47;;;;;;;18.83;8.23;;;23.30;99.90;;;;;;10367859;28;83209;-49
2022/03/26 10:14:50;;;;;;;16.50;7.38;;;23.10;93.30;;;;;;10369347;28;83936;-57
2022/03/26 10:19:57;;;;;;;12.45;6.70;;;22.90;56.10;;;;;;10329793;28;85353;-48
2022/03/26 10:25:19;;;;;;;14.75;8.40;;;23.80;63.10;;;;;;10327247;28;84227;-48
2022/03/26 10:35:56;;;;;;;13.55;7.32;;;23.60;1.00;;;;;;10368671;28;104926;-48
2022/03/26 10:41:01;;;;;;;12.75;6.85;;;23.80;1.00;;;;;;10370226;28;83801;-51
2022/03/26 10:46:02;;;;;;;12.40;7.15;;;24.60;1.00;;;;;;10368517;28;84079;-51
2022/03/26 10:51:09;;;;;;;14.32;6.55;;;24.60;1.00;;;;;;10370440;28;83265;-49
2022/03/26 10:56:12;;;;;;;11.68;6.57;;;25.70;1.00;;;;;;10368053;28;84103;-53
2022/03/26 11:01:13;;;;;;;12.90;7.85;;;25.50;1.00;;;;;;10402078;28;84157;-53
2022/03/26 11:06:17;;;;;;;14.38;7.75;;;24.80;1.00;;;;;;10390780;28;84583;-51
2022/03/26 11:11:18;;;;;;;16.15;8.07;;;23.60;1.00;;;;;;10368619;28;83304;-53
2022/03/26 11:16:39;;;;;;;13.30;7.32;;;23.30;1.00;;;;;;10367783;28;83996;-50
2022/03/26 11:22:08;;;;;;;15.50;7.93;;;22.90;1.00;;;;;;10364305;28;84240;-50
2022/03/26 11:27:32;;;;;;;12.90;8.23;;;23.70;1.00;;;;;;10415456;28;83950;-54
2022/03/26 11:32:43;;;;;;;12.43;7.55;;;24.50;1.00;;;;;;10416695;28;84249;-52
2022/03/26 11:37:51;;;;;;;14.70;7.72;;;24.10;1.00;;;;;;10413479;28;83356;-50
2022/03/26 11:42:51;;;;;;;13.55;8.32;;;23.70;1.00;;;;;;10416706;28;83614;-50
2022/03/26 11:53:35;;;;;;;17.45;9.35;;;25.20;1.00;;;;;;10416176;28;83678;-48
2022/03/26 11:58:36;;;;;;;14.13;8.23;;;25.40;1.00;;;;;;10412923;28;83714;-49
2022/03/26 12:03:43;;;;;;;13.32;7.63;;;25.80;1.00;;;;;;10415580;28;84009;-50
2022/03/26 12:08:55;;;;;;;12.98;7.63;;;24.00;1.00;;;;;;10408799;28;84135;-50
2022/03/26 12:14:09;;;;;;;12.10;6.82;;;23.70;1.00;;;;;;10395203;28;84065;-50
2022/03/26 12:19:09;;;;;;;13.32;7.97;;;24.60;1.00;;;;;;10391828;28;84488;-50
2022/03/26 12:24:17;;;;;;;11.27;7.07;;;24.80;1.00;;;;;;10400909;28;84259;-50
2022/03/26 12:29:21;;;;;;;15.32;7.43;;;25.40;1.00;;;;;;10410032;28;84287;-57
2022/03/26 12:34:21;;;;;;;12.63;7.63;;;25.50;1.00;;;;;;10416097;28;83240;-56
2022/03/26 12:39:22;;;;;;;11.55;7.28;;;25.00;1.00;;;;;;10408940;28;83896;-50
2022/03/26 12:44:23;;;;;;;14.50;8.35;;;24.60;1.00;;;;;;10400209;28;84186;-56
2022/03/26 12:49:24;;;;;;;13.30;7.75;;;24.40;1.00;;;;;;10392507;28;83542;-50
2022/03/26 12:54:29;;;;;;;12.32;7.35;;;24.50;1.00;;;;;;10408339;28;84181;-61
2022/03/26 12:59:29;;;;;;;11.63;7.15;;;25.30;1.00;;;;;;10398512;28;85317;-49
2022/03/26 13:04:36;;;;;;;13.82;7.93;;;25.10;1.00;;;;;;10411100;28;86379;-48
2022/03/26 13:09:37;;;;;;;10.00;5.50;;;24.30;1.00;;;;;;10395274;28;84204;-54
2022/03/26 13:14:46;;;;;;;12.15;6.43;;;24.40;1.00;;;;;;10390813;28;83359;-54
2022/03/26 13:19:47;;;;;;;11.75;6.43;;;25.20;1.00;;;;;;10371513;28;83201;-51
2022/03/26 13:24:54;;;;;;;10.57;6.38;;;25.70;1.00;;;;;;10391862;28;83991;-49
2022/03/26 13:30:08;;;;;;;11.57;6.40;;;25.90;1.00;;;;;;10409769;28;84552;-52
2022/03/26 13:35:11;;;;;;;10.48;6.18;;;25.30;1.00;;;;;;10401809;28;84074;-50
2022/03/26 13:40:12;;;;;;;9.50;5.72;;;25.90;1.00;;;;;;10383893;28;85435;-51
2022/03/26 13:45:13;;;;;;;9.15;5.88;;;25.90;1.00;;;;;;10410624;28;83252;-53
2022/03/26 13:50:15;;;;;;;10.20;5.85;;;25.90;1.00;;;;;;10409347;28;84096;-50
2022/03/26 13:55:36;;;;;;;8.50;5.60;;;25.90;1.00;;;;;;10375066;28;84983;-48
2022/03/26 14:00:37;;;;;;;9.02;5.78;;;25.40;1.00;;;;;;10369544;28;83677;-48
2022/03/26 14:05:40;;;;;;;9.77;5.55;;;24.80;1.00;;;;;;10388860;28;83727;-51
2022/03/26 14:10:47;;;;;;;9.55;6.03;;;23.90;1.00;;;;;;10400780;28;84138;-49
2022/03/26 14:15:51;;;;;;;8.45;5.35;;;23.80;1.00;;;;;;10388328;28;84455;-55
2022/03/26 14:20:51;;;;;;;8.75;5.65;;;24.00;1.00;;;;;;10377973;28;85967;-48
2022/03/26 14:25:52;;;;;;;7.75;4.90;;;23.80;1.00;;;;;;10392387;28;83907;-49
2022/03/26 14:30:54;;;;;;;9.32;5.50;;;23.40;1.00;;;;;;10390733;28;84633;-50
2022/03/26 14:35:54;;;;;;;11.90;6.00;;;23.80;1.00;;;;;;10404932;28;83649;-49
2022/03/26 14:40:55;;;;;;;8.75;5.20;;;23.90;1.00;;;;;;10408405;28;84089;-48
2022/03/26 14:45:56;;;;;;;8.57;5.32;;;24.20;1.00;;;;;;10408995;28;83599;-50
2022/03/26 14:50:57;;;;;;;7.32;5.55;;;24.00;1.00;;;;;;10387959;28;83903;-51
2022/03/26 14:55:58;;;;;;;8.65;5.35;;;23.60;1.00;;;;;;10391965;28;83227;-57
2022/03/26 15:00:59;;;;;;;8.65;5.38;;;23.30;1.00;;;;;;10398261;28;83279;-52
2022/03/26 15:06:01;;;;;;;7.20;4.43;;;23.50;1.00;;;;;;10409350;28;84619;-46
2022/03/26 15:11:03;;;;;;;7.07;4.53;;;22.70;1.00;;;;;;10389747;28;83902;-50
2022/03/26 15:16:04;;;;;;;7.60;4.32;;;21.90;1.00;;;;;;10399651;28;84068;-53
2022/03/26 15:21:05;;;;;;;10.98;5.25;;;21.40;1.00;;;;;;10412463;28;84941;-47
2022/03/26 15:26:06;;;;;;;8.40;4.22;;;20.70;1.00;;;;;;10373988;28;84058;-50
2022/03/26 15:31:06;;;;;;;10.50;5.28;;;20.30;1.00;;;;;;10401484;28;84263;-48
2022/03/26 15:36:07;;;;;;;11.00;5.20;;;19.90;1.00;;;;;;10379343;28;83813;-47
2022/03/26 15:41:08;;;;;;;9.15;5.13;;;19.80;1.00;;;;;;10373435;28;84501;-50
2022/03/26 15:46:08;;;;;;;8.43;4.70;;;19.60;1.00;;;;;;10395527;28;86321;-53
2022/03/26 15:51:10;;;;;;;9.13;5.38;;;19.50;1.00;;;;;;10414893;28;83973;-48
2022/03/26 15:56:11;;;;;;;9.48;5.20;;;19.10;1.00;;;;;;10412707;28;84135;-49
2022/03/26 16:01:12;;;;;;;7.70;4.70;;;19.00;99.90;;;;;;10398151;28;83659;-46
2022/03/26 16:06:14;;;;;;;12.05;5.70;;;18.90;99.90;;;;;;10392390;28;83943;-51
2022/03/26 16:11:14;;;;;;;9.20;5.45;;;19.00;99.90;;;;;;10397000;28;83289;-48
2022/03/26 16:16:15;;;;;;;10.27;5.70;;;18.80;1.00;;;;;;10382310;28;84275;-48
2022/03/26 16:21:16;;;;;;;10.68;5.60;;;18.70;1.00;;;;;;10390723;28;84082;-50
2022/03/26 16:26:16;;;;;;;8.65;4.80;;;18.80;1.00;;;;;;10403470;28;83773;-49
2022/03/26 16:31:17;;;;;;;11.23;5.75;;;18.50;1.00;;;;;;10391495;28;84625;-49
2022/03/26 16:36:18;;;;;;;10.52;6.10;;;18.40;1.00;;;;;;10399925;28;83982;-46
2022/03/26 16:41:18;;;;;;;9.45;5.78;;;18.40;99.90;;;;;;10402881;28;84382;-47
2022/03/26 16:46:19;;;;;;;10.90;6.30;;;18.30;99.90;;;;;;10399954;28;83807;-47
2022/03/26 16:51:20;;;;;;;10.98;6.28;;;18.30;1.00;;;;;;10392332;28;84111;-47
2022/03/26 16:56:20;;;;;;;8.55;4.90;;;18.10;1.00;;;;;;10388771;28;84627;-46
2022/03/26 17:01:21;;;;;;;8.45;4.85;;;17.80;99.90;;;;;;10403780;28;83799;-48
2022/03/26 17:06:29;;;;;;;11.13;6.05;;;17.60;1.00;;;;;;10398124;28;92656;-49
2022/03/26 17:11:31;;;;;;;9.50;4.75;;;17.30;1.00;;;;;;10370674;28;83844;-53
2022/03/26 17:16:33;;;;;;;10.43;5.45;;;17.20;99.90;;;;;;10391997;28;83338;-54
2022/03/26 17:21:36;;;;;;;7.28;4.15;;;17.00;1.00;;;;;;10390427;28;84086;-48
2022/03/26 17:26:37;;;;;;;6.50;4.20;;;17.00;1.00;;;;;;10393532;28;84356;-48
2022/03/26 17:31:38;;;;;;;7.78;4.57;;;17.00;1.00;;;;;;10389448;28;83899;-49
2022/03/26 17:36:39;;;;;;;6.60;4.28;;;16.80;1.00;;;;;;10404023;28;84182;-47
2022/03/26 17:41:39;;;;;;;6.57;3.60;;;16.80;27.20;;;;;;10391886;28;84030;-50
2022/03/26 17:46:40;;;;;;;8.32;4.00;;;16.70;99.90;;;;;;10386776;28;86130;-51
2022/03/26 17:51:40;;;;;;;6.22;3.60;;;16.70;99.90;;;;;;10385166;28;84440;-49
2022/03/26 17:56:41;;;;;;;6.50;3.53;;;16.70;99.90;;;;;;10364595;28;84238;-47
2022/03/26 18:01:42;;;;;;;4.72;2.80;;;16.60;1.00;;;;;;10381765;28;84166;-47
2022/03/26 18:06:43;;;;;;;3.58;2.40;;;16.40;99.90;;;;;;10400248;28;85335;-45
2022/03/26 18:11:43;;;;;;;4.60;2.80;;;16.30;99.90;;;;;;10396556;28;83904;-49
2022/03/26 18:16:46;;;;;;;2.88;1.77;;;16.20;99.90;;;;;;10403837;28;85103;-47
2022/03/26 18:21:46;;;;;;;4.32;2.25;;;16.10;1.00;;;;;;10442517;22;84270;-48
2022/03/26 18:26:47;;;;;;;3.00;1.83;;;15.90;99.90;;;;;;10474418;27;83884;-46
2022/03/26 18:31:48;;;;;;;4.72;2.15;;;15.80;1.00;;;;;;10475829;27;84385;-47
2022/03/26 18:36:48;;;;;;;4.15;2.03;;;15.70;1.00;;;;;;10486455;27;83933;-47
2022/03/26 18:41:49;;;;;;;2.75;1.52;;;15.70;1.00;;;;;;10426976;27;84079;-48
2022/03/26 18:46:50;;;;;;;3.65;1.95;;;15.70;28.90;;;;;;10442454;27;83823;-49
2022/03/26 18:51:51;;;;;;;2.60;1.75;;;15.60;99.90;;;;;;10477995;27;84017;-50
2022/03/26 18:56:51;;;;;;;3.42;1.73;;;15.50;99.90;;;;;;10445446;27;83810;-49
2022/03/26 19:01:53;;;;;;;3.38;2.35;;;15.40;99.90;;;;;;10431891;27;84203;-48
2022/03/26 19:06:54;;;;;;;3.33;1.73;;;15.30;99.90;;;;;;10411051;28;85141;-46
2022/03/26 19:11:54;;;;;;;3.30;1.40;;;15.20;99.90;;;;;;10416511;28;83942;-49
2022/03/26 19:16:56;;;;;;;3.05;1.50;;;15.20;1.00;;;;;;10446948;27;84147;-48
2022/03/26 19:21:57;;;;;;;2.78;1.58;;;15.20;1.00;;;;;;10415405;27;84189;-47
2022/03/26 19:26:58;;;;;;;2.60;1.83;;;15.20;1.00;;;;;;10433572;27;84120;-47
2022/03/26 19:31:59;;;;;;;4.43;1.80;;;15.20;1.00;;;;;;10448340;28;83767;-47
2022/03/26 19:36:59;;;;;;;2.85;1.50;;;15.20;1.00;;;;;;10432060;28;86195;-48
2022/03/26 19:42:00;;;;;;;5.63;2.35;;;15.00;1.00;;;;;;10456115;27;84072;-50
2022/03/26 19:47:01;;;;;;;4.90;2.00;;;14.90;1.00;;;;;;10449541;27;83697;-49
2022/03/26 19:52:02;;;;;;;3.55;1.70;;;14.80;1.00;;;;;;10434144;27;84194;-50
2022/03/26 19:57:04;;;;;;;3.10;1.40;;;14.80;1.00;;;;;;10415114;28;83754;-48
2022/03/26 20:02:05;;;;;;;5.28;1.70;;;14.80;1.00;;;;;;10416079;28;83732;-49
2022/03/26 20:07:06;;;;;;;4.10;1.42;;;14.70;1.00;;;;;;10415510;28;83685;-51
2022/03/26 20:12:07;;;;;;;3.10;1.40;;;14.70;1.00;;;;;;10431914;27;86390;-47
2022/03/26 20:22:27;;;;;;;2.97;1.15;;;14.50;99.90;;;;;;10427825;28;83732;-44
2022/03/26 20:27:27;;;;;;;1.42;1.10;;;14.40;99.90;;;;;;10445154;28;83775;-49
2022/03/26 20:32:28;;;;;;;3.00;1.45;;;14.20;99.90;;;;;;10430695;28;85676;-48
2022/03/26 20:37:28;;;;;;;4.28;1.40;;;14.10;1.00;;;;;;10416314;28;83778;-46
2022/03/26 20:42:29;;;;;;;2.55;1.38;;;13.80;1.00;;;;;;10429050;28;84144;-46
2022/03/26 20:47:30;;;;;;;3.75;1.50;;;13.70;1.00;;;;;;10456423;28;84253;-48
2022/03/26 20:52:31;;;;;;;3.83;1.13;;;13.70;1.00;;;;;;10464221;27;83739;-46
2022/03/26 20:57:32;;;;;;;4.28;1.67;;;13.60;1.00;;;;;;10481276;27;84121;-48
2022/03/26 21:02:33;;;;;;;4.72;1.73;;;13.50;1.00;;;;;;10482390;27;84124;-47
2022/03/26 21:07:34;;;;;;;4.43;1.80;;;13.30;1.00;;;;;;10486445;27;84093;-47
2022/03/26 21:12:35;;;;;;;4.18;1.98;;;13.10;1.00;;;;;;10468493;27;84866;-46
2022/03/26 21:17:36;;;;;;;4.60;1.95;;;13.00;1.00;;;;;;10468115;27;84155;-46
2022/03/26 21:22:36;;;;;;;4.38;2.15;;;12.90;1.00;;;;;;10470988;27;84145;-46
2022/03/26 21:27:37;;;;;;;5.32;1.92;;;12.70;1.00;;;;;;10485689;27;83884;-50
2022/03/26 21:32:38;;;;;;;5.07;2.10;;;12.60;1.00;;;;;;10489991;27;84157;-49
2022/03/26 21:37:38;;;;;;;4.88;2.53;;;12.60;1.00;;;;;;10477334;27;83825;-46
2022/03/26 21:42:39;;;;;;;4.80;2.42;;;12.50;1.00;;;;;;10447513;28;83748;-47
2022/03/26 21:47:42;;;;;;;4.75;2.75;;;12.50;1.00;;;;;;10426310;28;83666;-48
2022/03/26 21:52:43;;;;;;;4.32;2.60;;;12.40;1.00;;;;;;10431531;27;83772;-46
2022/03/26 21:57:44;;;;;;;5.07;3.20;;;12.30;1.00;;;;;;10429380;27;83712;-45
2022/03/26 22:02:45;;;;;;;6.57;2.88;;;12.20;1.00;;;;;;10435916;27;85099;-50
2022/03/26 22:07:45;;;;;;;6.72;3.13;;;12.20;1.00;;;;;;10423674;28;84492;-47
2022/03/26 22:12:46;;;;;;;7.78;3.28;;;12.10;1.00;;;;;;10442355;28;84235;-47
2022/03/26 22:17:47;;;;;;;7.30;2.97;;;11.90;1.00;;;;;;10421836;28;84111;-47
2022/03/26 22:22:48;;;;;;;6.47;2.85;;;11.80;1.00;;;;;;10426938;28;84182;-47
2022/03/26 22:27:48;;;;;;;4.65;2.65;;;11.80;1.00;;;;;;10437349;28;83972;-46
2022/03/26 22:32:49;;;;;;;4.85;2.47;;;11.70;1.00;;;;;;10420629;28;83867;-47
2022/03/26 22:37:50;;;;;;;5.95;3.17;;;11.70;1.00;;;;;;10418848;28;83782;-46
2022/03/26 22:42:56;;;;;;;6.70;3.80;;;11.50;1.00;;;;;;10436031;28;84208;-49
2022/03/26 22:47:58;;;;;;;6.10;3.30;;;11.50;10.50;;;;;;10420174;28;84200;-48
2022/03/26 22:53:00;;;;;;;8.80;3.38;;;11.30;14.30;;;;;;10424026;28;84229;-49
2022/03/26 22:58:03;;;;;;;8.10;3.40;;;11.30;40.70;;;;;;10417617;28;84061;-48
2022/03/26 23:03:04;;;;;;;;;;;11.20;54.40;;;;;;10426628;28;84250;-51
2022/03/26 23:08:05;;;;;;;;;;;11.10;99.90;;;;;;10456463;27;86217;-46
2022/03/26 23:13:05;;;;;;;;;;;11.00;99.90;;;;;;10427972;28;83870;-46
2022/03/26 23:18:06;;;;;;;;;;;11.00;99.90;;;;;;10430076;28;84070;-46
2022/03/26 23:23:06;;;;;;;8.77;3.92;;;10.80;99.90;;;;;;10434809;28;83700;-46
2022/03/26 23:28:07;;;;;;;7.65;3.92;;;10.80;99.90;;;;;;10445669;28;83835;-49
2022/03/26 23:33:08;;;;;;;6.68;4.28;;;10.70;99.90;;;;;;10432238;28;83805;-48
2022/03/26 23:38:08;;;;;;;5.75;3.83;;;10.60;99.90;;;;;;10441251;28;83804;-46
2022/03/26 23:43:09;;;;;;;7.28;3.83;;;10.60;99.90;;;;;;10424644;28;84034;-46
2022/03/26 23:48:10;;;;;;;;;;;10.50;99.90;;;;;;10435245;28;84891;-47
2022/03/26 23:53:11;;;;;;;;;;;10.40;99.90;;;;;;10435729;28;83902;-47
2022/03/26 23:58:12;;;;;;;;;;;10.40;99.90;;;;;;10448117;28;84053;-46
